Archival Weather

Los Angeles Intl

Los Angeles, California (KLAX)

Report from: Thursday, September 21, 2023 2:31 PM PDT
Current time: Saturday, March 2, 2024 3:05 AM PST

Current weather – Weather history – Daily summaries
Weather forecast

Temperature20.6°C (69.1°F)
Dew point15.0°C (59.0°F)
Winds 12 kts (6.2 m/s, 13.8 mph) West-Southwest (240°)
Visibility10 mi. (16.1 km)
Clouds Few clouds 2,100 ft. (640 m)
Scattered clouds 4,300 ft. (1,311 m)
Altimeter29.94 in.Hg (1014 mB)
Relative humidity70 %
Density altitude869 ft. (265 m)
Remarks Automated weather observing station with precipitation discriminator
Flight conditions Visual Meteorological Conditions
Raw dataKLAX 212131Z 24012KT 10SM FEW021 SCT043 21/15 A2994 RMK AO2 T02060150
An error has occurred. This application may no longer respond until reloaded. Reload 🗙